Time;durP1;ratioP1;P1;durP2;ratioP2;P2;SDS_P1;SDS_P2;PMS_P1;PMS_P2;Temp;Humidity;BMP_temperature;BMP_pressure;BME280_temperature;BME280_humidity;BME280_pressure;Samples;Min_cycle;Max_cycle;Signal;HPM_P1;HPM_P2
2023/09/11 00:02:03;;;;;;;15.70;8.85;;;;;;;23.02;84.18;101294.81;5046154;28;20026;-54
2023/09/11 00:04:28;;;;;;;15.35;8.40;;;;;;;22.99;84.39;101294.38;5049287;28;20021;-52
2023/09/11 00:06:53;;;;;;;12.85;8.57;;;;;;;22.99;84.19;101288.94;5056994;28;20105;-53
2023/09/11 00:09:19;;;;;;;14.70;8.68;;;;;;;22.97;84.21;101280.19;5047903;28;20108;-53
2023/09/11 00:11:44;;;;;;;14.20;8.57;;;;;;;22.94;84.61;101283.25;5058828;28;20085;-53
2023/09/11 00:14:09;;;;;;;15.90;9.05;;;;;;;22.95;84.73;101290.34;5049346;28;20104;-53
2023/09/11 00:16:35;;;;;;;14.03;8.43;;;;;;;22.91;84.92;101284.47;5050353;28;20441;-52
2023/09/11 00:19:00;;;;;;;19.40;8.80;;;;;;;22.88;85.07;101284.84;5049219;28;20275;-51
2023/09/11 00:21:26;;;;;;;19.83;9.38;;;;;;;22.86;85.29;101278.78;5046597;28;20399;-53
2023/09/11 00:23:51;;;;;;;14.57;9.68;;;;;;;22.84;84.85;101278.97;5049714;28;20032;-53
2023/09/11 00:26:16;;;;;;;15.13;8.77;;;;;;;22.81;85.11;101276.63;5052364;28;20021;-51
2023/09/11 00:28:42;;;;;;;14.90;9.00;;;;;;;22.78;85.44;101270.75;5048515;28;20402;-50
2023/09/11 00:31:07;;;;;;;14.18;9.57;;;;;;;22.73;86.02;101269.47;5053515;28;20029;-53
2023/09/11 00:33:32;;;;;;;10.60;8.98;;;;;;;22.71;86.04;101282.31;5049285;28;20036;-50
2023/09/11 00:35:58;;;;;;;13.80;8.65;;;;;;;22.69;86.52;101278.13;5053604;28;20505;-50
2023/09/11 00:38:23;;;;;;;21.77;9.73;;;;;;;22.64;87.31;101275.16;5050886;28;20021;-50
2023/09/11 00:40:49;;;;;;;16.48;10.10;;;;;;;22.61;87.36;101270.94;5048860;28;20035;-50
2023/09/11 00:43:14;;;;;;;21.00;10.15;;;;;;;22.59;87.44;101273.00;5052500;28;20046;-50
2023/09/11 00:45:39;;;;;;;20.23;10.27;;;;;;;22.57;87.81;101268.81;5054324;28;20017;-51
2023/09/11 00:48:05;;;;;;;17.15;9.70;;;;;;;22.53;87.79;101271.03;5047510;28;20052;-50
2023/09/11 00:50:31;;;;;;;18.50;9.43;;;;;;;22.50;88.15;101268.72;5045824;28;20036;-50
2023/09/11 00:52:57;;;;;;;20.60;9.07;;;;;;;22.43;88.00;101263.22;5047833;28;20032;-49
2023/09/11 00:55:23;;;;;;;15.73;9.80;;;;;;;22.43;87.60;101273.16;5048232;28;20025;-49
2023/09/11 00:57:49;;;;;;;17.85;9.32;;;;;;;22.41;88.38;101276.06;5046265;28;20028;-51
2023/09/11 01:00:14;;;;;;;20.27;10.23;;;;;;;22.37;88.47;101273.94;5048597;28;20035;-50
2023/09/11 01:02:40;;;;;;;17.55;9.40;;;;;;;22.32;89.23;101277.19;5046266;28;20059;-50
2023/09/11 01:05:07;;;;;;;15.63;9.85;;;;;;;22.30;89.16;101269.25;5052630;28;20021;-50
2023/09/11 01:07:34;;;;;;;21.65;9.57;;;;;;;22.27;89.66;101272.28;5055985;28;20421;-50
2023/09/11 01:09:59;;;;;;;18.13;9.88;;;;;;;22.25;89.44;101259.94;5050370;28;20112;-51
2023/09/11 01:12:25;;;;;;;14.85;9.20;;;;;;;22.23;89.08;101264.72;5042135;28;20112;-50
2023/09/11 01:14:51;;;;;;;18.90;10.30;;;;;;;22.20;89.81;101260.53;5040975;28;20406;-50
2023/09/11 01:17:44;;;;;;;14.35;9.40;;;;;;;22.21;89.15;101270.31;5046378;28;20071;-50
2023/09/11 01:20:09;;;;;;;17.35;10.45;;;;;;;22.14;90.27;101266.66;5047402;28;20367;-50
2023/09/11 01:22:56;;;;;;;14.50;10.07;;;;;;;22.10;90.00;101268.03;5049687;28;20027;-50
2023/09/11 01:25:27;;;;;;;16.65;9.90;;;;;;;22.06;90.13;101261.34;5043797;28;20036;-50
2023/09/11 01:28:07;;;;;;;19.15;9.77;;;;;;;22.03;90.32;101267.09;5049308;28;20033;-51
2023/09/11 01:30:34;;;;;;;23.10;10.05;;;;;;;21.97;90.40;101268.69;5033920;28;20029;-50
2023/09/11 01:33:00;;;;;;;16.65;9.40;;;;;;;21.93;90.32;101262.81;5037173;28;20191;-51
2023/09/11 01:35:25;;;;;;;15.25;9.27;;;;;;;21.93;89.65;101261.94;5045882;28;20114;-50
2023/09/11 01:37:50;;;;;;;18.45;9.40;;;;;;;21.92;89.80;101260.28;5040822;28;20056;-49
2023/09/11 01:40:16;;;;;;;15.68;9.70;;;;;;;21.90;90.09;101256.91;5040049;28;20037;-51
2023/09/11 01:42:46;;;;;;;12.00;8.90;;;;;;;21.85;90.09;101262.00;5046538;28;20036;-50
2023/09/11 01:45:15;;;;;;;16.48;9.52;;;;;;;21.83;90.53;101262.19;5046624;28;20037;-50
2023/09/11 01:47:45;;;;;;;13.82;9.15;;;;;;;21.76;91.08;101251.25;5044742;28;20371;-49
2023/09/11 01:50:16;;;;;;;13.57;9.02;;;;;;;21.76;90.19;101253.13;5056364;28;20029;-50
2023/09/11 01:52:43;;;;;;;12.52;8.93;;;;;;;21.72;90.05;101249.13;5047253;28;20459;-50
2023/09/11 01:55:09;;;;;;;16.83;8.63;;;;;;;21.69;90.70;101257.59;5051314;28;20395;-50
2023/09/11 01:57:34;;;;;;;16.65;9.57;;;;;;;21.67;90.82;101256.94;5049432;28;20021;-50
2023/09/11 02:00:00;;;;;;;12.85;8.38;;;;;;;21.65;90.57;101253.56;5048492;28;20083;-50
2023/09/11 02:02:25;;;;;;;15.85;9.43;;;;;;;21.62;90.42;101255.59;5044661;28;20078;-50
2023/09/11 02:04:50;;;;;;;13.75;9.07;;;;;;;21.60;90.96;101246.84;5040366;28;20068;-51
2023/09/11 02:07:16;;;;;;;14.90;9.35;;;;;;;21.56;90.54;101250.91;5045129;28;20245;-50
2023/09/11 02:09:41;;;;;;;13.80;9.00;;;;;;;21.54;90.88;101241.31;5045109;28;20479;-50
2023/09/11 02:12:07;;;;;;;14.80;9.00;;;;;;;21.49;91.93;101244.56;5047993;28;20316;-50
2023/09/11 02:14:32;;;;;;;14.35;9.27;;;;;;;21.48;91.56;101239.31;5046095;28;20032;-50
2023/09/11 02:17:02;;;;;;;13.07;9.32;;;;;;;21.46;91.09;101236.75;5048144;28;20025;-51
2023/09/11 02:19:31;;;;;;;15.70;10.07;;;;;;;21.44;91.14;101241.53;5047136;28;20031;-50
2023/09/11 02:21:56;;;;;;;13.90;9.02;;;;;;;21.40;90.66;101237.47;5048328;28;20463;-50
2023/09/11 02:24:21;;;;;;;12.65;9.32;;;;;;;21.40;91.50;101235.63;5045560;28;20044;-50
2023/09/11 02:26:46;;;;;;;13.80;9.67;;;;;;;21.33;92.04;101231.13;5042176;28;20060;-50
2023/09/11 02:29:12;;;;;;;11.38;8.65;;;;;;;21.32;91.20;101230.28;5047276;28;20326;-50
2023/09/11 02:31:37;;;;;;;17.75;9.45;;;;;;;21.31;92.27;101228.59;5044843;28;20082;-50
2023/09/11 02:34:02;;;;;;;13.50;9.00;;;;;;;21.28;92.13;101230.81;5049444;28;20020;-51
2023/09/11 02:36:27;;;;;;;12.48;8.38;;;;;;;21.24;92.55;101233.88;5050265;28;20742;-49
2023/09/11 02:38:53;;;;;;;16.15;9.27;;;;;;;21.26;92.06;101231.00;5038642;28;20036;-50
2023/09/11 02:41:18;;;;;;;14.20;9.15;;;;;;;21.20;91.14;101237.09;5045437;28;20029;-50
2023/09/11 02:43:43;;;;;;;12.68;8.77;;;;;;;21.16;92.87;101233.91;5050109;28;20048;-50
2023/09/11 02:46:09;;;;;;;14.07;9.02;;;;;;;21.15;92.57;101237.66;5043928;28;20021;-50
2023/09/11 02:48:37;;;;;;;16.60;9.02;;;;;;;21.10;92.81;101231.09;5051214;28;20158;-50
2023/09/11 02:51:02;;;;;;;18.20;9.13;;;;;;;21.09;93.26;101235.66;5046284;28;20036;-50
2023/09/11 02:53:28;;;;;;;13.75;8.63;;;;;;;21.06;93.55;101227.91;5050396;28;20112;-50
2023/09/11 02:55:53;;;;;;;14.15;9.45;;;;;;;21.03;92.94;101237.22;5052779;28;20094;-50
2023/09/11 02:58:18;;;;;;;15.23;9.60;;;;;;;20.99;93.33;101227.78;5043301;28;20029;-53
2023/09/11 03:00:44;;;;;;;13.52;9.05;;;;;;;20.94;94.19;101229.34;5046865;28;20420;-50
2023/09/11 03:03:09;;;;;;;12.55;9.27;;;;;;;20.90;94.36;101223.44;5045136;28;20072;-51
2023/09/11 03:05:35;;;;;;;14.35;9.60;;;;;;;20.93;93.91;101216.84;5051363;28;20049;-52
2023/09/11 03:08:01;;;;;;;15.18;8.95;;;;;;;20.88;93.97;101225.47;5045700;28;20033;-51
2023/09/11 03:10:27;;;;;;;16.63;9.20;;;;;;;20.86;94.30;101216.69;5048198;28;20025;-50
2023/09/11 03:12:54;;;;;;;14.90;9.45;;;;;;;20.83;93.71;101217.91;5054196;28;20028;-50
2023/09/11 03:15:19;;;;;;;15.73;9.45;;;;;;;20.73;93.80;101201.06;5046101;28;20084;-51
2023/09/11 03:17:49;;;;;;;11.07;9.45;;;;;;;20.73;94.11;101211.84;5040683;28;20427;-51
2023/09/11 03:20:14;;;;;;;13.48;8.88;;;;;;;20.72;94.88;101209.34;5044911;28;20108;-50
2023/09/11 03:22:39;;;;;;;12.52;9.27;;;;;;;20.67;95.13;101208.00;5038753;28;20037;-51
2023/09/11 03:25:05;;;;;;;13.40;9.68;;;;;;;20.67;95.01;101201.78;5052126;28;20450;-51
2023/09/11 03:27:30;;;;;;;19.02;9.73;;;;;;;20.64;94.92;101197.56;5052177;28;20494;-50
2023/09/11 03:29:56;;;;;;;15.55;9.50;;;;;;;20.63;94.88;101195.91;5055042;28;20115;-51
2023/09/11 03:32:21;;;;;;;12.88;9.57;;;;;;;20.61;95.78;101199.75;5049032;28;20025;-53
2023/09/11 03:34:53;;;;;;;12.73;9.95;;;;;;;20.58;95.48;101190.13;5047686;28;20025;-50
2023/09/11 03:37:19;;;;;;;14.95;10.50;;;;;;;20.57;95.75;101191.16;5049482;28;20109;-51
2023/09/11 03:39:44;;;;;;;15.13;9.82;;;;;;;20.57;94.99;101195.69;5045758;28;20110;-50
2023/09/11 03:42:10;;;;;;;13.02;9.73;;;;;;;20.52;96.34;101205.16;5047254;28;20060;-51
2023/09/11 03:44:35;;;;;;;13.50;9.38;;;;;;;20.48;95.81;101203.84;5052689;28;20047;-51
2023/09/11 03:47:00;;;;;;;14.88;10.15;;;;;;;20.50;95.49;101190.16;5054979;28;20032;-50
2023/09/11 03:49:26;;;;;;;14.30;9.52;;;;;;;20.48;96.33;101192.19;5049195;28;20031;-50
2023/09/11 03:51:52;;;;;;;16.23;9.45;;;;;;;20.44;95.90;101188.19;5046077;28;20099;-51
2023/09/11 03:54:17;;;;;;;15.20;9.02;;;;;;;20.44;95.87;101180.09;5050364;28;20025;-51
2023/09/11 03:56:43;;;;;;;14.00;9.63;;;;;;;20.40;96.31;101184.13;5050946;28;20083;-50
2023/09/11 03:59:08;;;;;;;10.88;9.48;;;;;;;20.36;95.48;101172.00;5057516;28;20029;-50
2023/09/11 04:01:34;;;;;;;13.60;9.38;;;;;;;20.33;96.71;101170.50;5048861;28;20111;-53
2023/09/11 04:03:59;;;;;;;11.27;9.25;;;;;;;20.30;96.48;101174.41;5048441;28;20049;-51
2023/09/11 04:06:24;;;;;;;13.50;9.40;;;;;;;20.31;96.03;101164.44;5048419;28;20053;-50
2023/09/11 04:08:50;;;;;;;15.57;9.38;;;;;;;20.30;96.48;101162.75;5047683;28;20113;-50
2023/09/11 04:11:19;;;;;;;15.27;9.55;;;;;;;20.23;96.35;101161.75;5047614;28;20087;-51
2023/09/11 04:13:44;;;;;;;14.07;9.13;;;;;;;20.24;96.38;101158.06;5047976;28;20036;-49
2023/09/11 04:16:09;;;;;;;12.82;10.18;;;;;;;20.21;96.37;101161.09;5047027;28;20033;-49
2023/09/11 04:18:35;;;;;;;12.18;9.50;;;;;;;20.15;96.75;101163.47;5047912;28;20021;-50
2023/09/11 04:21:03;;;;;;;12.63;8.90;;;;;;;20.17;96.26;101163.31;5042508;28;20033;-50
2023/09/11 04:23:28;;;;;;;13.07;9.50;;;;;;;20.13;96.42;101154.72;5049970;28;20268;-50
2023/09/11 04:25:54;;;;;;;15.43;9.43;;;;;;;20.12;96.25;101149.50;5049803;28;20017;-50
2023/09/11 04:28:20;;;;;;;11.50;8.60;;;;;;;20.11;96.58;101143.25;5049397;28;20033;-50
2023/09/11 04:30:45;;;;;;;12.93;9.60;;;;;;;20.11;96.66;101148.66;5044815;28;20548;-50
2023/09/11 04:33:10;;;;;;;16.83;9.63;;;;;;;20.07;96.45;101143.78;5052081;28;20024;-50
2023/09/11 04:35:36;;;;;;;13.77;8.93;;;;;;;20.05;97.03;101149.34;5052634;28;20037;-50
2023/09/11 04:38:02;;;;;;;15.18;9.43;;;;;;;20.04;96.10;101147.66;5046462;28;20314;-49
2023/09/11 04:40:27;;;;;;;15.30;9.68;;;;;;;20.02;95.90;101148.84;5044055;28;20343;-49
2023/09/11 04:42:52;;;;;;;13.00;9.32;;;;;;;19.99;96.48;101152.72;5046774;28;20129;-49
2023/09/11 04:45:18;;;;;;;16.10;9.45;;;;;;;19.99;96.47;101154.59;5054901;28;20170;-50
2023/09/11 04:47:43;;;;;;;14.02;9.55;;;;;;;19.98;96.65;101153.72;5050467;28;20112;-51
2023/09/11 04:50:09;;;;;;;17.33;9.35;;;;;;;19.95;96.27;101160.31;5051159;28;20027;-52
2023/09/11 04:52:34;;;;;;;13.43;9.57;;;;;;;19.93;96.73;101165.06;5047987;28;20033;-50
2023/09/11 04:54:59;;;;;;;15.43;9.90;;;;;;;19.92;97.27;101166.06;5043223;28;20178;-51
2023/09/11 04:57:25;;;;;;;19.38;9.75;;;;;;;19.92;96.73;101160.66;5051473;28;20017;-50
2023/09/11 04:59:50;;;;;;;17.20;9.55;;;;;;;19.91;96.99;101164.38;5050860;28;20390;-50
2023/09/11 05:02:15;;;;;;;16.20;10.05;;;;;;;19.87;96.87;101160.34;5050880;28;20455;-50
2023/09/11 05:04:42;;;;;;;17.58;10.18;;;;;;;19.86;96.96;101163.19;5044812;28;20494;-50
2023/09/11 05:07:07;;;;;;;12.23;9.40;;;;;;;19.86;96.42;101163.19;5052140;28;20025;-51
2023/09/11 05:09:33;;;;;;;18.05;9.52;;;;;;;19.83;95.81;101169.75;5040025;28;20047;-50
2023/09/11 05:11:58;;;;;;;14.55;9.43;;;;;;;19.82;96.39;101168.09;5047808;28;20063;-49
2023/09/11 05:14:24;;;;;;;13.43;9.98;;;;;;;19.81;97.44;101173.66;5050574;28;20036;-49
2023/09/11 05:16:50;;;;;;;13.80;9.48;;;;;;;19.81;96.79;101169.09;5048877;28;20021;-51
2023/09/11 05:19:15;;;;;;;13.15;9.27;;;;;;;19.81;96.65;101173.66;5041775;28;20420;-50
2023/09/11 05:21:41;;;;;;;13.35;9.45;;;;;;;19.79;97.13;101181.91;5051197;28;20064;-50
2023/09/11 05:24:06;;;;;;;13.68;9.43;;;;;;;19.75;96.73;101167.06;5047004;28;20028;-50
2023/09/11 05:26:32;;;;;;;16.42;9.80;;;;;;;19.75;96.52;101170.63;5051995;28;20035;-49
2023/09/11 05:28:57;;;;;;;15.75;9.73;;;;;;;19.74;96.57;101178.84;5046868;28;20032;-50
2023/09/11 05:31:22;;;;;;;12.93;9.15;;;;;;;19.72;96.30;101176.31;5051325;28;20443;-49
2023/09/11 05:33:48;;;;;;;10.20;8.15;;;;;;;19.74;96.54;101177.00;5043777;28;20025;-50
2023/09/11 05:36:13;;;;;;;11.02;8.85;;;;;;;19.71;96.22;101185.41;5055074;28;20391;-49
2023/09/11 05:38:38;;;;;;;15.80;9.80;;;;;;;19.74;97.07;101186.94;5043573;28;20111;-49
2023/09/11 05:41:04;;;;;;;15.73;8.77;;;;;;;19.73;95.57;101179.84;5046241;28;20451;-50
2023/09/11 05:43:30;;;;;;;15.43;8.48;;;;;;;19.72;95.95;101187.09;5045734;28;20051;-51
2023/09/11 05:45:56;;;;;;;15.80;8.77;;;;;;;19.71;95.46;101185.41;5049844;28;20029;-50
2023/09/11 05:48:21;;;;;;;14.50;9.30;;;;;;;19.73;95.63;101190.63;5044575;28;20031;-50
2023/09/11 05:50:47;;;;;;;16.00;9.98;;;;;;;19.72;96.39;101194.38;5046169;28;20483;-50
2023/09/11 05:53:12;;;;;;;15.73;9.25;;;;;;;19.70;97.19;101188.28;5046123;28;20036;-49
2023/09/11 05:55:38;;;;;;;14.05;8.63;;;;;;;19.73;95.53;101194.19;5048904;28;20479;-52
2023/09/11 05:58:03;;;;;;;25.65;9.55;;;;;;;19.69;96.94;101187.44;5045586;28;20117;-49
2023/09/11 06:00:29;;;;;;;12.43;9.23;;;;;;;19.75;96.04;101197.59;5045113;28;20108;-50
2023/09/11 06:02:55;;;;;;;17.63;9.05;;;;;;;19.76;96.53;101204.63;5043495;28;20464;-49
2023/09/11 06:05:21;;;;;;;18.75;8.77;;;;;;;19.78;96.86;101205.34;5035799;28;20132;-49
2023/09/11 06:07:46;;;;;;;17.27;9.27;;;;;;;19.81;96.95;101206.00;5043018;28;20533;-50
2023/09/11 06:10:12;;;;;;;18.27;9.70;;;;;;;19.84;95.94;101197.59;5034074;28;20112;-50
2023/09/11 06:12:38;;;;;;;14.52;9.20;;;;;;;19.84;96.02;101209.19;5042876;28;20450;-49
2023/09/11 06:15:04;;;;;;;17.10;10.25;;;;;;;19.85;95.43;101205.50;5038297;28;20029;-50
2023/09/11 06:17:30;;;;;;;12.95;9.75;;;;;;;19.88;96.17;101207.00;5045605;28;20037;-49
2023/09/11 06:19:55;;;;;;;18.13;10.25;;;;;;;19.90;95.85;101207.66;5043533;28;20086;-49
2023/09/11 06:22:21;;;;;;;12.30;8.70;;;;;;;19.91;95.96;101207.50;5047857;28;20028;-49
2023/09/11 06:24:46;;;;;;;16.17;9.77;;;;;;;19.93;95.32;101215.41;5037534;28;20483;-48
2023/09/11 06:27:13;;;;;;;23.20;10.32;;;;;;;19.92;95.26;101209.19;5041027;28;20044;-49
2023/09/11 06:29:39;;;;;;;14.57;9.32;;;;;;;19.93;95.56;101193.84;5049126;28;20025;-49
2023/09/11 06:32:05;;;;;;;13.48;8.88;;;;;;;19.97;96.21;101214.06;5045393;28;20024;-49
2023/09/11 06:34:30;;;;;;;14.85;9.02;;;;;;;19.99;95.90;101209.34;5051476;28;20162;-49
2023/09/11 06:36:57;;;;;;;16.50;9.27;;;;;;;20.02;96.16;101210.84;5047874;28;20028;-50
2023/09/11 06:39:23;;;;;;;18.02;9.35;;;;;;;20.06;96.12;101215.72;5043368;28;20028;-49
2023/09/11 06:41:48;;;;;;;15.18;10.02;;;;;;;20.08;95.86;101213.69;5041422;28;20422;-49
2023/09/11 06:44:13;;;;;;;16.45;9.25;;;;;;;20.12;96.62;101214.22;5047090;28;20040;-49
2023/09/11 06:46:39;;;;;;;14.60;9.38;;;;;;;20.15;95.76;101216.56;5044113;28;20446;-50
2023/09/11 06:49:04;;;;;;;16.25;9.13;;;;;;;20.17;95.25;101214.56;5040055;28;20105;-51
2023/09/11 06:51:29;;;;;;;18.40;9.73;;;;;;;20.20;96.00;101218.75;5040972;28;20048;-48
2023/09/11 06:53:55;;;;;;;11.95;9.38;;;;;;;20.23;96.40;101221.94;5047061;28;20056;-47
2023/09/11 06:56:20;;;;;;;17.05;9.65;;;;;;;20.27;95.75;101225.16;5039242;28;20470;-48
2023/09/11 06:58:46;;;;;;;20.90;10.30;;;;;;;20.27;96.51;101220.59;5049052;28;20021;-51
2023/09/11 07:01:13;;;;;;;13.73;9.35;;;;;;;20.33;95.26;101219.06;5045499;28;20145;-50
2023/09/11 07:03:38;;;;;;;13.02;8.95;;;;;;;20.42;95.80;101215.31;5047913;28;20505;-49
2023/09/11 07:06:04;;;;;;;19.70;9.98;;;;;;;20.49;95.06;101212.78;5045939;28;20041;-49
2023/09/11 07:08:29;;;;;;;13.68;9.73;;;;;;;20.52;94.73;101210.56;5048087;28;20021;-48
2023/09/11 07:10:55;;;;;;;16.13;9.77;;;;;;;20.61;95.14;101210.53;5047669;28;20029;-49
2023/09/11 07:13:21;;;;;;;17.58;9.57;;;;;;;20.80;95.40;101212.84;5052780;28;20017;-49
2023/09/11 07:16:00;;;;;;;14.77;10.38;;;;;;;20.85;93.66;101202.38;5048887;28;20052;-49
2023/09/11 07:18:25;;;;;;;;;;;;;;;20.96;93.28;101195.72;5052952;28;20035;-49
2023/09/11 07:20:52;;;;;;;15.95;9.80;;;;;;;21.28;92.92;101201.09;5051336;28;20304;-49
2023/09/11 07:23:23;;;;;;;18.00;11.02;;;;;;;21.42;91.39;101197.63;5049232;28;20031;-48
2023/09/11 07:25:51;;;;;;;17.33;10.15;;;;;;;21.66;91.02;101198.47;5046371;28;20033;-48
2023/09/11 07:28:16;;;;;;;16.38;10.75;;;;;;;21.83;89.38;101194.59;5051882;28;20052;-48
2023/09/11 07:30:43;;;;;;;20.00;11.00;;;;;;;22.04;88.91;101207.41;5045719;28;20127;-50
2023/09/11 07:33:09;;;;;;;14.75;10.25;;;;;;;22.28;87.62;101208.19;5046687;28;20359;-51
2023/09/11 07:35:34;;;;;;;19.00;9.82;;;;;;;22.44;86.25;101204.50;5049957;28;20035;-51
2023/09/11 07:37:59;;;;;;;19.20;10.38;;;;;;;22.81;86.63;101211.63;5043759;28;20057;-51
2023/09/11 07:40:25;;;;;;;18.20;10.63;;;;;;;23.07;85.13;101215.72;5045940;28;20044;-52
2023/09/11 07:42:52;;;;;;;20.25;10.65;;;;;;;23.28;83.24;101221.19;5054537;28;20037;-50
2023/09/11 07:45:18;;;;;;;20.08;11.38;;;;;;;23.44;82.13;101213.81;5040371;28;20484;-50
2023/09/11 07:47:43;;;;;;;18.92;10.65;;;;;;;23.69;81.65;101218.84;5053434;28;20115;-51
2023/09/11 07:50:09;;;;;;;19.05;11.65;;;;;;;23.90;79.94;101215.28;5045906;28;20036;-51
2023/09/11 07:52:35;;;;;;;17.35;11.40;;;;;;;24.04;79.50;101224.38;5056262;28;20033;-50
2023/09/11 07:55:01;;;;;;;16.98;10.68;;;;;;;24.29;78.55;101224.75;5043708;28;20124;-51
2023/09/11 07:57:27;;;;;;;19.60;12.30;;;;;;;24.40;77.76;101240.50;5049494;28;20036;-51
2023/09/11 07:59:52;;;;;;;17.15;12.48;;;;;;;24.62;76.98;101235.00;5045847;28;20070;-51
2023/09/11 08:02:18;;;;;;;15.93;12.30;;;;;;;24.90;76.01;101238.47;5050727;28;20029;-52
2023/09/11 08:04:43;;;;;;;17.80;12.65;;;;;;;25.07;74.75;101240.84;5050346;28;20064;-51
2023/09/11 08:07:08;;;;;;;21.23;13.68;;;;;;;25.17;74.89;101246.72;5052740;28;20431;-51
2023/09/11 08:09:34;;;;;;;19.60;13.43;;;;;;;25.32;73.59;101234.88;5050429;28;20032;-51
2023/09/11 08:12:00;;;;;;;17.73;13.75;;;;;;;25.47;72.47;101247.22;5047531;28;20071;-53
2023/09/11 08:14:25;;;;;;;19.40;14.13;;;;;;;25.57;73.43;101244.09;5051149;28;20021;-54
2023/09/11 08:16:51;;;;;;;22.30;14.55;;;;;;;25.70;71.85;101251.44;5040943;28;20040;-50
2023/09/11 08:19:16;;;;;;;19.10;14.13;;;;;;;25.82;71.58;101252.50;5043560;28;20060;-51
2023/09/11 08:21:41;;;;;;;21.95;13.85;;;;;;;25.98;70.59;101244.97;5045352;28;20419;-51
2023/09/11 08:24:07;;;;;;;18.90;13.85;;;;;;;26.10;70.93;101245.22;5045047;28;20413;-50
2023/09/11 08:26:33;;;;;;;20.00;13.27;;;;;;;26.23;71.90;101237.03;5046300;28;20028;-53
2023/09/11 08:28:59;;;;;;;20.73;13.73;;;;;;;26.46;69.47;101241.16;5042970;28;20036;-55
2023/09/11 08:31:24;;;;;;;20.48;13.15;;;;;;;26.50;69.09;101236.97;5048820;28;20096;-54
2023/09/11 08:33:54;;;;;;;20.83;13.00;;;;;;;26.79;69.07;101235.63;5043891;28;20310;-52
2023/09/11 08:36:19;;;;;;;20.95;13.50;;;;;;;26.80;68.01;101239.19;5050895;28;20025;-52
2023/09/11 08:38:45;;;;;;;21.05;14.32;;;;;;;27.08;66.60;101238.84;5038406;28;20382;-54
2023/09/11 08:41:12;;;;;;;18.17;12.52;;;;;;;27.20;67.12;101239.00;5047551;28;20031;-53
2023/09/11 08:43:39;;;;;;;16.65;12.52;;;;;;;27.44;66.57;101240.97;5055446;28;20045;-54
2023/09/11 08:46:06;;;;;;;20.65;13.75;;;;;;;27.57;64.49;101241.94;5044143;28;20345;-51
2023/09/11 08:48:36;;;;;;;20.52;12.52;;;;;;;27.63;64.05;101241.91;5040849;28;20451;-54
2023/09/11 08:51:08;;;;;;;17.08;13.35;;;;;;;27.79;64.73;101245.13;5040538;28;20432;-52
2023/09/11 08:53:36;;;;;;;19.73;15.00;;;;;;;28.00;61.63;101235.75;5041553;28;20116;-51
2023/09/11 08:56:01;;;;;;;19.92;12.07;;;;;;;28.30;62.63;101237.78;5038701;28;20029;-54
2023/09/11 08:58:31;;;;;;;18.73;12.30;;;;;;;28.43;62.86;101237.63;5046640;28;20029;-52
2023/09/11 09:00:56;;;;;;;17.02;11.65;;;;;;;28.61;61.93;101242.25;5041829;28;20057;-54
2023/09/11 09:03:24;;;;;;;18.92;12.15;;;;;;;28.57;61.02;101239.16;5039683;28;20094;-52
2023/09/11 09:05:49;;;;;;;22.08;11.93;;;;;;;28.90;60.53;101242.56;5040520;28;20025;-51
2023/09/11 09:08:15;;;;;;;21.40;12.20;;;;;;;29.02;59.52;101243.44;5042059;28;20073;-54
2023/09/11 09:10:42;;;;;;;15.80;11.35;;;;;;;29.15;59.23;101239.69;5044932;28;20296;-51
2023/09/11 09:13:09;;;;;;;18.48;12.10;;;;;;;29.36;58.24;101234.78;5042078;28;20096;-55
2023/09/11 09:15:40;;;;;;;21.63;11.40;;;;;;;29.49;58.79;101237.34;5036910;28;20037;-52
2023/09/11 09:18:05;;;;;;;16.65;11.23;;;;;;;29.69;56.80;101235.13;5047123;28;20034;-55
2023/09/11 09:20:32;;;;;;;15.23;10.65;;;;;;;29.87;56.47;101236.13;5041653;28;20041;-52
2023/09/11 09:22:59;;;;;;;17.17;11.43;;;;;;;30.11;56.32;101231.50;5041445;28;20480;-52
2023/09/11 09:25:25;;;;;;;13.45;10.63;;;;;;;30.27;54.71;101238.13;5044202;28;20025;-54
2023/09/11 09:27:51;;;;;;;16.45;10.07;;;;;;;30.27;53.79;101249.09;5046012;28;20017;-54
2023/09/11 09:30:21;;;;;;;15.90;10.63;;;;;;;30.41;54.28;101236.00;5040678;28;20108;-55
2023/09/11 09:32:48;;;;;;;18.02;10.48;;;;;;;30.41;52.27;101233.25;5049550;28;20036;-55
2023/09/11 09:35:14;;;;;;;15.38;9.68;;;;;;;30.68;53.56;101238.22;5049487;28;20025;-55
2023/09/11 09:37:39;;;;;;;12.23;9.30;;;;;;;30.86;52.05;101232.56;5035143;28;20033;-54
2023/09/11 09:40:06;;;;;;;15.35;9.13;;;;;;;30.97;51.17;101242.69;5028686;28;20040;-54
2023/09/11 09:42:41;;;;;;;17.17;10.18;;;;;;;31.11;51.53;101234.16;5038036;28;20030;-55
2023/09/11 09:45:07;;;;;;;15.63;9.18;;;;;;;31.21;51.83;101231.63;5040079;28;20040;-55
2023/09/11 09:47:32;;;;;;;10.50;6.78;;;;;;;31.46;51.39;101228.50;5042021;28;20022;-50
2023/09/11 09:50:00;;;;;;;10.63;7.27;;;;;;;31.44;50.45;101230.63;5043572;28;20131;-50
2023/09/11 09:52:27;;;;;;;13.07;7.22;;;;;;;31.50;49.01;101235.16;5040526;28;20363;-50
2023/09/11 09:54:58;;;;;;;12.20;7.47;;;;;;;31.87;47.28;101231.94;5044059;28;20374;-52
2023/09/11 09:57:25;;;;;;;10.02;7.00;;;;;;;31.74;46.37;101237.75;5042385;28;20017;-51
2023/09/11 09:59:54;;;;;;;12.25;7.68;;;;;;;31.81;47.66;101230.22;5043213;28;20498;-50
2023/09/11 10:02:38;;;;;;;10.32;7.07;;;;;;;32.08;49.83;101224.88;5046082;28;20028;-51
2023/09/11 10:05:06;;;;;;;13.93;6.53;;;;;;;32.05;47.92;101230.84;5043873;28;20032;-48
2023/09/11 10:07:39;;;;;;;10.20;6.68;;;;;;;32.36;47.67;101224.97;5039431;28;20045;-50
2023/09/11 10:10:34;;;;;;;13.00;6.50;;;;;;;32.51;50.07;101225.19;5039671;28;20022;-51
2023/09/11 10:13:06;;;;;;;11.60;6.50;;;;;;;32.34;46.59;101227.97;5045828;28;20370;-52
2023/09/11 10:15:35;;;;;;;10.35;6.00;;;;;;;32.56;46.83;101233.50;5049244;28;20072;-53
2023/09/11 10:18:03;;;;;;;10.05;5.93;;;;;;;32.67;45.83;101228.16;5046209;28;20200;-50
2023/09/11 10:20:28;;;;;;;10.55;5.40;;;;;;;32.79;45.94;101228.81;5046124;28;20155;-50
2023/09/11 10:23:00;;;;;;;12.52;6.22;;;;;;;32.88;45.15;101224.53;5032708;28;20108;-53
2023/09/11 10:25:29;;;;;;;9.38;5.30;;;;;;;33.11;44.13;101219.81;5037032;28;20400;-51
2023/09/11 10:28:02;;;;;;;10.13;5.35;;;;;;;33.00;44.48;101222.47;5045388;28;20048;-52
2023/09/11 10:30:34;;;;;;;11.27;5.35;;;;;;;33.10;44.19;101218.16;5046039;28;20041;-53
2023/09/11 10:33:01;;;;;;;10.30;5.65;;;;;;;33.23;42.92;101216.97;5053584;28;20021;-52
2023/09/11 10:35:34;;;;;;;10.38;5.68;;;;;;;33.41;43.58;101210.22;5049509;28;20040;-52
2023/09/11 10:38:01;;;;;;;12.73;6.82;;;;;;;33.27;43.68;101210.66;5041358;28;20421;-50
2023/09/11 10:40:30;;;;;;;10.73;5.30;;;;;;;33.22;42.98;101204.28;5036275;28;20032;-50
2023/09/11 10:42:55;;;;;;;9.63;5.75;;;;;;;33.24;42.45;101211.16;5037955;28;20507;-52
2023/09/11 10:45:32;;;;;;;11.15;5.78;;;;;;;33.47;44.32;101214.69;5043296;28;20020;-49
2023/09/11 10:47:58;;;;;;;11.98;5.90;;;;;;;33.41;42.78;101208.31;5028557;28;20552;-50
2023/09/11 10:50:35;;;;;;;12.52;5.93;;;;;;;33.37;44.15;101204.41;5036401;28;20021;-49
2023/09/11 10:53:03;;;;;;;9.82;5.85;;;;;;;33.27;43.28;101201.56;5039591;28;20036;-49
2023/09/11 10:55:28;;;;;;;11.40;5.57;;;;;;;33.71;42.95;101205.00;5045837;28;20037;-51
2023/09/11 10:57:57;;;;;;;11.40;6.13;;;;;;;33.49;42.58;101199.56;5040580;28;20105;-53
2023/09/11 11:00:25;;;;;;;8.32;5.88;;;;;;;33.62;43.48;101198.28;5046377;28;20025;-50
2023/09/11 11:02:52;;;;;;;10.63;5.67;;;;;;;33.99;43.00;101202.13;5040252;28;20147;-50
2023/09/11 11:05:18;;;;;;;12.75;5.90;;;;;;;33.95;41.93;101198.28;5043403;28;20280;-51
2023/09/11 11:07:47;;;;;;;9.45;5.22;;;;;;;34.06;41.82;101197.25;5038458;28;20186;-51
2023/09/11 11:10:16;;;;;;;9.07;5.65;;;;;;;34.15;41.09;101200.31;5038001;28;20032;-50
2023/09/11 11:12:42;;;;;;;;;;;;;;;34.65;44.16;101193.38;5044235;28;20108;-51
2023/09/11 11:15:25;;;;;;;12.05;5.88;;;;;;;34.41;41.27;101202.13;5036525;28;19913;-51